SBOSBO INV / EGPE
Speedbird OnlineSpeedbird Online INV / EGPE

Inverness Airport
09:28 10.6°C

Location Inverness, United Kingdom
Latitude: 57.54249954223633
Longitude: -4.047500133514404
Web Airport Website | Wikipedia
Altitude 9 Meter / 31 Feet
Distance 723 KM / 449 Miles
from London.
Time Zone UTC +1 hours (Europe/London)
Codes IATA: INV
ICAO: EGPE
Runways
RunwayLength (m)Surface
051887Asphalt
11700Asphalt
231887Asphalt
29700Asphalt
Radio
TypeDescriptionFrequency
APPAPP122.605
ATISATIS109.2
RDRRDR122.605
TWRInverness Tower118.405
TWRTWR (when TWR/APP combined)122.605
Live ATC
METAR EGPE 060750Z 23020KT 8000 -SHRA SCT028 BKN045 11/08 Q1007
TAF TAF EGPE 060457Z 0606/0615 21015KT 9999 FEW040 PROB40 TEMPO 0606/0615 23018G32KT 5000 SHRA
Weather As Of 06 Oct 2022 09:26
Description Broken clouds
Wind 37 km/h from South-West (230°)
Cloud Cover 75%
Precipitation Rain: none, Snow: none
Sunrise 07:30
Sunset 18:38
Lounges Aspire Lounge, Main terminal
Rotations During the last 90 days there were
154 flights from LHR
160 flights to LHR


© 2017-2022 Speedbird Online